Time;durP1;ratioP1;P1;durP2;ratioP2;P2;SDS_P1;SDS_P2;PMS_P1;PMS_P2;Temp;Humidity;BMP_temperature;BMP_pressure;BME280_temperature;BME280_humidity;BME280_pressure;Samples;Min_cycle;Max_cycle;Signal;HPM_P1;HPM_P2
2021/10/06 00:01:09;;;;;;;0.73;0.20;;;;;;;10.83;93.60;95466.09;5017929;28;20224;-68
2021/10/06 00:03:38;;;;;;;0.40;0.23;;;;;;;10.87;93.30;95480.53;5009865;28;20313;-69
2021/10/06 00:06:06;;;;;;;0.50;0.30;;;;;;;10.87;93.19;95474.44;5019529;28;20674;-68
2021/10/06 00:08:34;;;;;;;2.13;0.30;;;;;;;10.90;93.80;95474.06;5027662;28;22570;-69
2021/10/06 00:11:02;;;;;;;2.50;0.40;;;;;;;10.79;94.00;95485.97;5013055;28;20711;-70
2021/10/06 00:13:30;;;;;;;0.93;0.20;;;;;;;10.75;94.23;95485.50;5000872;28;20602;-69
2021/10/06 00:16:00;;;;;;;0.57;0.40;;;;;;;10.79;94.37;95497.34;5004592;28;20234;-69
2021/10/06 00:18:28;;;;;;;0.83;0.77;;;;;;;10.93;94.16;95508.00;5016455;28;20278;-69
2021/10/06 00:20:58;;;;;;;0.43;0.20;;;;;;;10.82;93.70;95517.25;5007757;28;20255;-69
2021/10/06 00:23:27;;;;;;;1.10;0.20;;;;;;;10.78;93.84;95523.91;5022132;28;20227;-70
2021/10/06 00:25:55;;;;;;;0.47;0.30;;;;;;;10.83;93.99;95524.16;5020588;28;20598;-69
2021/10/06 00:28:23;;;;;;;0.70;0.50;;;;;;;10.78;93.73;95515.97;4999532;28;20223;-69
2021/10/06 00:30:51;;;;;;;1.07;0.30;;;;;;;10.83;93.57;95518.88;5020435;28;20246;-69
2021/10/06 00:33:21;;;;;;;0.43;0.27;;;;;;;10.75;93.50;95516.38;5001337;28;20307;-70
2021/10/06 00:35:49;;;;;;;0.40;0.17;;;;;;;10.85;93.06;95514.22;5018635;28;20219;-69
2021/10/06 00:38:18;;;;;;;1.10;0.70;;;;;;;10.76;93.04;95518.81;5010639;28;20304;-69
2021/10/06 00:40:46;;;;;;;0.83;0.83;;;;;;;10.73;92.62;95528.94;5019367;28;20303;-70
2021/10/06 00:43:14;;;;;;;0.37;0.20;;;;;;;10.76;93.07;95539.94;5017616;28;20223;-69
2021/10/06 00:45:43;;;;;;;2.83;0.50;;;;;;;10.71;92.76;95536.22;4999749;28;20293;-69
2021/10/06 00:48:11;;;;;;;1.83;1.67;;;;;;;10.79;92.81;95538.75;5022483;28;20694;-69
2021/10/06 00:50:42;;;;;;;0.90;0.30;;;;;;;10.83;92.81;95532.09;5022272;28;20654;-68
2021/10/06 00:53:10;;;;;;;1.67;0.90;;;;;;;10.78;92.90;95537.09;5017268;28;20224;-68
2021/10/06 00:55:38;;;;;;;2.17;0.33;;;;;;;10.78;93.23;95542.38;4997971;28;20658;-69
2021/10/06 00:58:06;;;;;;;0.30;0.30;;;;;;;10.82;93.24;95538.38;5021410;28;20247;-69
2021/10/06 01:00:35;;;;;;;0.30;0.30;;;;;;;10.85;93.51;95547.72;5015779;28;20666;-70
2021/10/06 01:03:03;;;;;;;0.33;0.33;;;;;;;10.90;93.34;95546.16;5023281;28;20236;-69
2021/10/06 01:05:32;;;;;;;0.70;0.30;;;;;;;10.89;93.54;95551.63;5019504;28;20269;-69
2021/10/06 01:08:02;;;;;;;0.53;0.20;;;;;;;10.91;93.62;95546.97;5017101;28;20294;-68
2021/10/06 01:10:30;;;;;;;1.33;1.23;;;;;;;10.97;93.19;95549.69;5018947;28;20644;-69
2021/10/06 01:12:59;;;;;;;0.30;0.20;;;;;;;10.98;93.30;95548.69;5020975;28;20243;-69
2021/10/06 01:15:28;;;;;;;0.37;0.23;;;;;;;10.92;93.62;95544.16;5014825;28;20232;-69
2021/10/06 01:17:56;;;;;;;1.70;0.30;;;;;;;10.87;93.58;95545.72;5015678;28;20235;-69
2021/10/06 01:20:24;;;;;;;1.93;0.50;;;;;;;10.83;93.69;95543.44;5023427;28;20251;-70
2021/10/06 01:22:54;;;;;;;1.90;0.40;;;;;;;10.82;94.26;95538.38;5001159;28;20308;-69
2021/10/06 01:25:23;;;;;;;1.37;0.37;;;;;;;10.81;94.46;95537.56;5003427;28;20240;-70
2021/10/06 01:27:51;;;;;;;0.23;0.23;;;;;;;10.81;94.35;95542.03;5012601;28;20619;-68
2021/10/06 01:30:19;;;;;;;0.40;0.40;;;;;;;10.83;94.61;95532.91;5015084;28;20242;-69
2021/10/06 01:32:48;;;;;;;0.77;0.30;;;;;;;10.88;94.42;95550.81;5014946;28;20222;-70
2021/10/06 01:35:16;;;;;;;0.20;0.20;;;;;;;10.90;94.35;95543.53;4997257;28;20252;-69
2021/10/06 01:37:46;;;;;;;2.60;0.53;;;;;;;10.96;94.23;95558.59;4999362;28;20325;-69
2021/10/06 01:40:17;;;;;;;0.50;0.30;;;;;;;10.93;94.03;95560.81;5027522;28;20242;-69
2021/10/06 01:42:46;;;;;;;0.93;0.73;;;;;;;10.97;93.46;95552.34;5001197;28;20221;-69
2021/10/06 01:45:17;;;;;;;3.03;0.87;;;;;;;10.87;93.37;95556.25;5010655;28;20312;-69
2021/10/06 01:47:45;;;;;;;0.60;0.20;;;;;;;10.88;93.51;95553.47;5017411;28;20221;-68
2021/10/06 01:50:19;;;;;;;5.10;0.70;;;;;;;10.82;93.37;95556.84;4994179;28;20226;-69
2021/10/06 01:52:48;;;;;;;1.03;0.50;;;;;;;10.83;93.04;95561.13;5017314;28;20769;-69
2021/10/06 01:55:17;;;;;;;1.10;1.10;;;;;;;10.88;92.11;95558.75;5000747;28;20304;-69
2021/10/06 01:57:45;;;;;;;5.00;1.23;;;;;;;10.87;92.44;95554.44;5017658;28;20253;-69
2021/10/06 02:00:15;;;;;;;0.53;0.47;;;;;;;10.90;92.42;95556.72;5018205;28;20251;-69
2021/10/06 02:02:43;;;;;;;0.20;0.20;;;;;;;10.81;92.54;95557.84;5000053;28;20269;-69
2021/10/06 02:05:11;;;;;;;0.77;0.10;;;;;;;10.78;92.93;95558.22;4999968;28;20228;-70
2021/10/06 02:07:39;;;;;;;5.93;1.70;;;;;;;10.80;92.58;95567.59;5016621;28;20777;-69
2021/10/06 02:10:08;;;;;;;0.63;0.63;;;;;;;10.83;92.63;95558.47;5019620;28;20313;-69
2021/10/06 02:12:38;;;;;;;5.10;0.93;;;;;;;10.75;92.96;95555.94;5016284;28;20245;-69
2021/10/06 02:15:08;;;;;;;0.40;0.40;;;;;;;10.68;92.99;95565.63;5020314;28;21002;-69
2021/10/06 02:17:36;;;;;;;2.20;0.63;;;;;;;10.68;92.97;95557.69;5016905;28;20228;-69
2021/10/06 02:20:06;;;;;;;2.50;0.33;;;;;;;10.63;92.89;95560.91;5020412;28;20222;-69
2021/10/06 02:22:34;;;;;;;0.70;0.47;;;;;;;10.65;93.05;95568.63;5020018;28;20309;-70
2021/10/06 02:25:02;;;;;;;3.33;1.33;;;;;;;10.58;93.26;95562.47;5017931;28;20348;-69
2021/10/06 02:27:31;;;;;;;0.70;0.50;;;;;;;10.46;93.35;95565.59;5010592;28;20224;-69
2021/10/06 02:30:00;;;;;;;3.23;0.63;;;;;;;10.43;93.26;95571.25;5010853;28;20243;-69
2021/10/06 02:32:28;;;;;;;2.20;0.40;;;;;;;10.46;93.74;95560.31;5008784;28;20221;-70
2021/10/06 02:34:56;;;;;;;1.10;0.30;;;;;;;10.45;93.45;95563.97;5019616;28;20892;-70
2021/10/06 02:37:24;;;;;;;1.17;0.50;;;;;;;10.40;94.01;95573.41;5024428;28;20234;-69
2021/10/06 02:39:52;;;;;;;1.67;1.50;;;;;;;10.25;93.45;95570.81;5007600;28;20243;-70
2021/10/06 02:42:20;;;;;;;0.93;0.57;;;;;;;10.24;93.74;95571.78;5023442;28;20619;-69
2021/10/06 02:44:48;;;;;;;0.53;0.50;;;;;;;10.22;93.72;95568.53;5024837;28;20231;-69
2021/10/06 02:47:18;;;;;;;1.20;0.53;;;;;;;10.23;93.00;95570.97;5013501;28;20641;-69
2021/10/06 02:49:46;;;;;;;17.03;1.67;;;;;;;10.23;93.51;95575.44;5011758;28;20314;-69
2021/10/06 02:52:14;;;;;;;0.50;0.20;;;;;;;10.20;94.12;95575.78;5024698;28;20229;-69
2021/10/06 02:54:42;;;;;;;0.50;0.50;;;;;;;10.11;93.50;95582.16;5024264;28;20306;-68
2021/10/06 02:57:10;;;;;;;2.50;0.40;;;;;;;10.16;93.88;95577.97;5020678;28;20310;-69
2021/10/06 02:59:38;;;;;;;0.50;0.50;;;;;;;10.25;93.53;95573.47;5020568;28;20311;-68
2021/10/06 03:02:06;;;;;;;0.40;0.30;;;;;;;10.23;93.68;95578.06;5021842;28;20223;-69
2021/10/06 03:04:36;;;;;;;0.50;0.30;;;;;;;10.21;93.88;95577.41;5017965;28;20231;-68
2021/10/06 03:07:04;;;;;;;0.60;0.57;;;;;;;10.23;93.82;95593.91;5020509;28;20258;-70
2021/10/06 03:09:32;;;;;;;0.20;0.20;;;;;;;10.20;93.52;95586.31;5013434;28;20323;-69
2021/10/06 03:12:01;;;;;;;0.57;0.40;;;;;;;10.22;93.73;95589.63;5021623;28;20315;-69
2021/10/06 03:14:29;;;;;;;1.17;1.03;;;;;;;10.14;94.10;95592.31;5023715;28;20793;-68
2021/10/06 03:16:58;;;;;;;0.70;0.70;;;;;;;10.03;94.80;95588.34;5012832;28;20814;-69
2021/10/06 03:19:26;;;;;;;0.70;0.40;;;;;;;10.03;94.02;95590.16;5016437;28;20238;-71
2021/10/06 03:21:55;;;;;;;0.97;0.63;;;;;;;10.03;94.29;95590.16;5016841;28;20278;-68
2021/10/06 03:24:23;;;;;;;1.63;0.93;;;;;;;10.06;94.60;95600.31;5019902;28;20647;-69
2021/10/06 03:26:52;;;;;;;0.77;0.77;;;;;;;10.07;94.45;95596.72;5003902;28;20311;-69
2021/10/06 03:29:20;;;;;;;4.20;0.67;;;;;;;10.03;94.79;95595.41;5018808;28;20807;-69
2021/10/06 03:31:48;;;;;;;1.50;0.80;;;;;;;9.90;94.91;95602.16;5017415;28;20250;-70
2021/10/06 03:34:16;;;;;;;0.50;0.40;;;;;;;9.93;95.18;95617.59;5023600;28;20311;-69
2021/10/06 03:36:44;;;;;;;4.73;0.87;;;;;;;9.84;95.42;95608.13;5013783;28;20706;-70
2021/10/06 03:39:14;;;;;;;1.97;0.73;;;;;;;9.89;95.55;95612.88;5022532;28;20234;-70
2021/10/06 03:41:42;;;;;;;0.80;0.70;;;;;;;9.80;95.51;95606.88;5020410;28;20331;-70
2021/10/06 03:44:11;;;;;;;1.30;1.23;;;;;;;9.82;95.47;95611.97;5016566;28;20653;-69
2021/10/06 03:46:38;;;;;;;3.33;0.93;;;;;;;9.84;95.47;95616.03;5012161;28;20256;-69
2021/10/06 03:49:08;;;;;;;2.30;0.50;;;;;;;9.81;95.77;95607.69;5016916;28;20302;-69
2021/10/06 03:51:36;;;;;;;3.60;1.07;;;;;;;9.83;95.83;95617.03;5016910;28;20719;-69
2021/10/06 03:54:04;;;;;;;0.40;0.40;;;;;;;9.77;95.23;95620.38;5017211;28;20413;-69
2021/10/06 03:56:38;;;;;;;1.17;1.07;;;;;;;9.79;94.90;95628.16;5016835;28;20308;-69
2021/10/06 03:59:06;;;;;;;0.30;0.27;;;;;;;9.80;95.15;95633.22;5018356;28;20244;-69
2021/10/06 04:01:35;;;;;;;0.70;0.60;;;;;;;9.79;95.58;95621.06;5017143;28;20310;-69
2021/10/06 04:04:03;;;;;;;0.60;0.30;;;;;;;9.77;95.70;95633.56;5016484;28;20216;-69
2021/10/06 04:06:31;;;;;;;1.50;1.00;;;;;;;9.84;95.44;95634.50;5000931;28;20650;-69
2021/10/06 04:08:59;;;;;;;1.40;0.40;;;;;;;9.86;95.37;95637.75;5012498;28;20313;-68
2021/10/06 04:11:27;;;;;;;2.27;0.57;;;;;;;9.81;95.50;95641.94;5000732;28;20698;-69
2021/10/06 04:13:57;;;;;;;4.33;2.13;;;;;;;9.74;95.14;95641.03;5019237;28;20270;-69
2021/10/06 04:16:25;;;;;;;2.93;0.57;;;;;;;9.79;94.96;95642.13;5013857;28;20378;-69
2021/10/06 04:18:53;;;;;;;3.70;2.10;;;;;;;9.70;95.34;95640.56;5009234;28;20248;-69
2021/10/06 04:21:22;;;;;;;0.50;0.50;;;;;;;9.87;94.60;95647.31;5017709;28;20251;-69
2021/10/06 04:23:50;;;;;;;3.83;1.17;;;;;;;9.94;95.05;95650.88;5010199;28;20248;-69
2021/10/06 04:26:18;;;;;;;0.53;0.40;;;;;;;9.92;95.02;95652.88;5020367;28;20728;-69
2021/10/06 04:28:46;;;;;;;0.90;0.40;;;;;;;9.95;94.49;95652.50;5017667;28;20215;-69
2021/10/06 04:31:18;;;;;;;0.50;0.50;;;;;;;10.01;94.79;95655.44;4995509;28;20232;-69
2021/10/06 04:33:46;;;;;;;1.60;0.40;;;;;;;10.04;94.45;95660.31;5020986;28;20307;-70
2021/10/06 04:36:17;;;;;;;1.50;0.30;;;;;;;10.09;94.00;95668.53;5017718;28;20791;-69
2021/10/06 04:38:45;;;;;;;0.63;0.63;;;;;;;10.09;93.82;95674.63;5022053;28;20666;-69
2021/10/06 04:41:14;;;;;;;2.37;1.07;;;;;;;10.06;94.11;95679.41;5018249;28;20589;-69
2021/10/06 04:43:41;;;;;;;2.93;0.50;;;;;;;10.05;94.11;95672.50;5005615;28;20246;-69
2021/10/06 04:46:09;;;;;;;1.07;0.57;;;;;;;9.94;94.29;95666.69;5021484;28;20251;-69
2021/10/06 04:48:39;;;;;;;1.77;0.77;;;;;;;9.87;94.56;95657.03;5024573;28;20281;-69
2021/10/06 04:51:07;;;;;;;0.20;0.20;;;;;;;9.71;94.74;95660.66;5022400;28;20302;-69
2021/10/06 04:53:35;;;;;;;0.97;0.57;;;;;;;9.78;94.68;95677.38;5024172;28;20219;-67
2021/10/06 04:56:03;;;;;;;0.40;0.30;;;;;;;9.86;94.05;95685.19;5020544;28;20531;-69
2021/10/06 04:58:31;;;;;;;0.53;0.23;;;;;;;9.74;93.97;95680.56;5014968;28;20319;-69
2021/10/06 05:00:59;;;;;;;0.40;0.10;;;;;;;9.71;94.13;95687.00;5010916;28;20267;-69
2021/10/06 05:03:28;;;;;;;2.27;0.67;;;;;;;9.65;94.38;95690.34;4994421;28;20224;-69
2021/10/06 05:05:57;;;;;;;0.60;0.40;;;;;;;9.52;94.46;95692.75;5022842;28;20231;-67
2021/10/06 05:08:25;;;;;;;1.17;0.53;;;;;;;9.43;94.14;95689.38;5020531;28;20254;-67
2021/10/06 05:10:53;;;;;;;0.87;0.37;;;;;;;9.51;94.03;95697.22;5019831;28;20238;-66
2021/10/06 05:13:21;;;;;;;1.13;0.43;;;;;;;9.56;93.97;95704.56;5017153;28;20247;-66
2021/10/06 05:15:49;;;;;;;0.80;0.80;;;;;;;9.50;93.70;95705.25;5022099;28;20223;-66
2021/10/06 05:18:17;;;;;;;2.37;0.30;;;;;;;9.49;93.60;95714.16;5025574;28;20657;-67
2021/10/06 05:20:45;;;;;;;3.03;0.97;;;;;;;9.56;93.88;95712.47;5013085;28;20235;-67
2021/10/06 05:23:15;;;;;;;2.47;0.50;;;;;;;9.56;93.60;95709.84;4999464;28;20227;-67
2021/10/06 05:25:43;;;;;;;1.80;0.30;;;;;;;9.51;93.44;95706.91;5016497;28;20259;-67
2021/10/06 05:28:11;;;;;;;0.20;0.20;;;;;;;9.39;93.95;95719.66;5014263;28;20697;-67
2021/10/06 05:30:39;;;;;;;0.57;0.27;;;;;;;9.36;94.01;95722.66;5012136;28;20320;-67
2021/10/06 05:33:08;;;;;;;0.27;0.20;;;;;;;9.31;94.18;95728.44;5020650;28;20291;-66
2021/10/06 05:35:36;;;;;;;1.37;0.30;;;;;;;9.31;94.08;95731.06;5010321;28;20228;-65
2021/10/06 05:38:04;;;;;;;0.43;0.37;;;;;;;9.30;93.76;95726.81;5029413;28;20221;-66
2021/10/06 05:40:34;;;;;;;0.80;0.33;;;;;;;9.34;93.73;95738.66;5014646;28;20461;-66
2021/10/06 05:43:02;;;;;;;1.03;0.20;;;;;;;9.47;93.34;95739.88;5017528;28;20240;-67
2021/10/06 05:45:31;;;;;;;0.40;0.37;;;;;;;9.36;93.53;95736.66;5012890;28;20300;-67
2021/10/06 05:47:59;;;;;;;0.40;0.30;;;;;;;9.41;93.67;95741.38;5015324;28;20347;-65
2021/10/06 05:50:27;;;;;;;1.83;0.67;;;;;;;9.40;93.09;95743.19;5011856;28;20230;-66
2021/10/06 05:52:58;;;;;;;2.37;1.10;;;;;;;9.33;93.31;95733.56;5014744;28;20276;-66
2021/10/06 05:55:27;;;;;;;2.50;0.30;;;;;;;9.31;93.41;95738.16;5010596;28;20311;-67
2021/10/06 05:57:56;;;;;;;1.80;0.27;;;;;;;9.37;92.83;95751.44;5015375;28;20298;-66
2021/10/06 06:00:24;;;;;;;0.80;0.37;;;;;;;9.40;92.90;95753.72;5019118;28;20222;-66
2021/10/06 06:02:52;;;;;;;3.77;0.20;;;;;;;9.35;93.00;95761.34;5017664;28;20219;-67
2021/10/06 06:05:21;;;;;;;1.57;1.47;;;;;;;9.34;93.04;95756.25;5014750;28;21835;-66
2021/10/06 06:07:54;;;;;;;3.73;0.30;;;;;;;9.39;93.63;95752.09;5016324;28;20403;-66
2021/10/06 06:10:22;;;;;;;1.87;0.60;;;;;;;9.44;93.18;95764.75;5021039;28;20280;-66
2021/10/06 06:12:50;;;;;;;1.80;0.30;;;;;;;9.48;93.47;95760.75;5019465;28;20807;-66
2021/10/06 06:15:19;;;;;;;0.63;0.30;;;;;;;9.53;93.01;95762.88;5001948;28;20257;-67
2021/10/06 06:17:47;;;;;;;1.67;0.40;;;;;;;9.58;92.83;95766.63;5004117;28;20310;-66
2021/10/06 06:20:23;;;;;;;0.60;0.23;;;;;;;9.65;92.29;95772.03;5017920;28;20247;-67
2021/10/06 06:22:52;;;;;;;0.90;0.50;;;;;;;9.69;92.41;95773.28;5024881;28;20450;-67
2021/10/06 06:25:21;;;;;;;4.27;0.90;;;;;;;9.64;92.58;95775.66;5021275;28;20325;-66
2021/10/06 06:27:50;;;;;;;0.87;0.20;;;;;;;9.72;92.40;95778.22;5022429;28;20693;-66
2021/10/06 06:30:19;;;;;;;0.37;0.20;;;;;;;9.74;92.37;95786.78;5021206;28;20655;-67
2021/10/06 06:32:47;;;;;;;0.50;0.50;;;;;;;9.79;92.10;95788.91;5023491;28;20227;-66
2021/10/06 06:35:15;;;;;;;0.57;0.50;;;;;;;9.77;91.79;95781.16;5022812;28;20653;-67
2021/10/06 06:37:43;;;;;;;2.17;0.50;;;;;;;9.79;92.55;95792.34;5015417;28;20266;-65
2021/10/06 06:40:12;;;;;;;0.70;0.47;;;;;;;9.82;92.30;95791.19;5012522;28;20306;-67
2021/10/06 06:42:41;;;;;;;1.07;0.50;;;;;;;9.82;92.29;95785.91;5018695;28;20239;-66
2021/10/06 06:45:10;;;;;;;4.87;1.13;;;;;;;9.88;91.92;95793.94;5014743;28;20752;-67
2021/10/06 06:47:41;;;;;;;1.57;0.90;;;;;;;9.78;92.35;95798.59;5010570;28;20243;-67
2021/10/06 06:50:10;;;;;;;1.00;0.70;;;;;;;9.83;92.52;95801.53;5014369;28;20265;-66
2021/10/06 06:52:38;;;;;;;1.07;0.20;;;;;;;9.81;91.49;95793.00;5019529;28;20214;-67
2021/10/06 06:55:07;;;;;;;4.20;0.83;;;;;;;9.81;91.08;95797.44;5002849;28;20339;-67
2021/10/06 06:57:35;;;;;;;3.20;0.80;;;;;;;9.75;91.83;95798.97;5020384;28;20323;-66
2021/10/06 07:00:04;;;;;;;1.77;0.70;;;;;;;9.68;91.61;95798.00;5017024;28;20252;-66
2021/10/06 07:02:32;;;;;;;0.50;0.50;;;;;;;9.75;91.07;95803.41;5005914;28;20266;-66
2021/10/06 07:05:02;;;;;;;0.30;0.20;;;;;;;9.75;91.24;95803.41;5009117;28;20247;-67
2021/10/06 07:07:31;;;;;;;1.40;1.30;;;;;;;9.89;91.29;95800.03;5011317;28;20230;-68
2021/10/06 07:09:59;;;;;;;3.80;1.53;;;;;;;9.89;91.35;95805.31;5012347;28;20247;-67
2021/10/06 07:12:27;;;;;;;2.60;0.37;;;;;;;10.04;91.13;95802.69;5012616;28;20276;-66
2021/10/06 07:14:56;;;;;;;4.80;0.50;;;;;;;10.14;90.31;95808.56;5019666;28;20758;-67
2021/10/06 07:17:24;;;;;;;5.30;0.93;;;;;;;10.19;90.67;95809.66;5006871;28;20742;-67
2021/10/06 07:19:52;;;;;;;0.50;0.30;;;;;;;10.17;90.48;95813.50;5015971;28;20237;-65
2021/10/06 07:22:22;;;;;;;0.23;0.23;;;;;;;10.31;89.85;95810.09;5018958;28;20254;-67
2021/10/06 07:24:50;;;;;;;0.47;0.33;;;;;;;10.42;90.44;95811.47;5023880;28;20799;-67
2021/10/06 07:27:18;;;;;;;0.60;0.60;;;;;;;10.52;88.81;95812.88;5017593;28;20744;-66
2021/10/06 07:29:46;;;;;;;1.50;1.20;;;;;;;10.52;89.26;95812.88;5023446;28;20220;-66
2021/10/06 07:32:14;;;;;;;1.77;1.67;;;;;;;10.69;89.12;95817.97;5005934;28;20221;-66
2021/10/06 07:34:42;;;;;;;1.17;0.93;;;;;;;10.80;88.21;95820.19;5017073;28;20308;-66
2021/10/06 07:37:10;;;;;;;4.30;1.23;;;;;;;10.85;87.59;95822.28;5018247;28;20220;-67
2021/10/06 07:39:39;;;;;;;0.60;0.60;;;;;;;10.99;88.13;95827.56;5018664;28;20781;-66
2021/10/06 07:42:07;;;;;;;0.80;0.50;;;;;;;11.14;88.06;95816.16;5017195;28;20220;-67
2021/10/06 07:44:36;;;;;;;1.10;0.33;;;;;;;11.30;86.79;95821.25;5020425;28;20261;-67
2021/10/06 07:47:04;;;;;;;0.97;0.97;;;;;;;11.37;85.34;95822.16;5027560;28;20467;-67
2021/10/06 07:49:32;;;;;;;2.70;0.40;;;;;;;11.53;85.26;95831.72;5016178;28;20244;-66
2021/10/06 07:52:01;;;;;;;7.50;1.13;;;;;;;11.61;84.36;95835.06;4994867;28;20286;-67
2021/10/06 07:54:29;;;;;;;1.00;0.40;;;;;;;11.71;83.15;95823.38;5018792;28;20656;-67
2021/10/06 07:56:58;;;;;;;0.53;0.30;;;;;;;11.84;84.05;95831.47;5017628;28;20560;-67
2021/10/06 07:59:26;;;;;;;0.40;0.40;;;;;;;11.90;82.92;95838.66;5000257;28;20617;-67
2021/10/06 08:01:55;;;;;;;0.23;0.20;;;;;;;12.09;82.70;95835.41;5021088;28;20277;-67
2021/10/06 08:04:24;;;;;;;1.63;0.40;;;;;;;12.09;83.06;95845.16;5005253;28;20599;-66
2021/10/06 08:06:53;;;;;;;1.87;0.47;;;;;;;12.27;82.25;95844.72;5016361;28;20223;-67
2021/10/06 08:09:21;;;;;;;3.17;0.73;;;;;;;12.19;81.67;95841.19;5003459;28;20342;-66
2021/10/06 08:11:50;;;;;;;0.80;0.40;;;;;;;12.04;82.54;95850.19;5022228;28;20254;-67
2021/10/06 08:14:20;;;;;;;1.00;0.30;;;;;;;11.80;83.14;95854.84;5008385;28;20284;-67
2021/10/06 08:16:49;;;;;;;1.30;0.30;;;;;;;11.91;83.11;95848.25;5013479;28;20233;-66
2021/10/06 08:19:17;;;;;;;0.83;0.83;;;;;;;11.94;83.00;95847.84;5024207;28;20769;-66
2021/10/06 08:21:47;;;;;;;0.47;0.40;;;;;;;12.05;83.34;95847.34;5020899;28;20282;-67
2021/10/06 08:24:15;;;;;;;2.73;1.40;;;;;;;11.83;82.66;95848.34;5023808;28;20218;-67
2021/10/06 08:26:43;;;;;;;1.90;0.73;;;;;;;12.01;82.24;95851.38;5020355;28;20328;-66
2021/10/06 08:29:12;;;;;;;2.20;1.37;;;;;;;12.05;82.83;95860.56;5022172;28;20226;-67
2021/10/06 08:31:42;;;;;;;2.13;0.60;;;;;;;12.08;82.28;95864.69;5019132;28;20249;-67
2021/10/06 08:34:10;;;;;;;2.27;0.30;;;;;;;12.06;81.90;95854.28;5016340;28;20440;-66
2021/10/06 08:36:38;;;;;;;2.50;1.47;;;;;;;12.22;82.14;95851.38;5017333;28;20262;-67
2021/10/06 08:39:08;;;;;;;1.07;0.40;;;;;;;12.35;81.57;95856.00;5012279;28;20234;-67
2021/10/06 08:41:37;;;;;;;3.97;1.17;;;;;;;12.35;82.24;95860.47;5017773;28;20254;-66
2021/10/06 08:44:05;;;;;;;1.13;1.13;;;;;;;12.22;82.15;95851.38;5012802;28;20305;-67
2021/10/06 08:46:34;;;;;;;5.03;1.37;;;;;;;12.15;82.19;95853.16;5019004;28;20684;-66
2021/10/06 08:49:06;;;;;;;2.00;0.60;;;;;;;12.06;81.93;95859.56;5019798;28;20242;-66
2021/10/06 08:51:34;;;;;;;1.00;1.00;;;;;;;12.09;82.16;95866.31;5002724;28;20242;-66
2021/10/06 08:54:02;;;;;;;0.70;0.43;;;;;;;11.98;81.91;95866.81;5005301;28;20265;-65
2021/10/06 08:56:30;;;;;;;0.77;0.50;;;;;;;11.90;82.33;95870.41;5015719;28;20301;-67
2021/10/06 08:58:59;;;;;;;2.53;0.77;;;;;;;11.92;81.77;95873.66;5020606;28;20238;-66
2021/10/06 09:01:28;;;;;;;2.43;1.23;;;;;;;12.01;82.02;95877.03;5013834;28;20228;-67
2021/10/06 09:03:58;;;;;;;1.63;0.50;;;;;;;11.89;81.83;95889.91;5014068;28;20242;-66
2021/10/06 09:06:34;;;;;;;1.00;0.50;;;;;;;11.94;81.47;95892.81;5015740;28;20672;-66
2021/10/06 09:09:15;;;;;;;1.33;1.23;;;;;;;12.21;81.59;95892.09;5016511;28;20682;-66
2021/10/06 09:11:44;;;;;;;0.57;0.50;;;;;;;12.38;79.93;95889.19;5021538;28;20313;-67
2021/10/06 09:14:12;;;;;;;0.53;0.50;;;;;;;12.48;79.78;95900.28;5020827;28;20253;-66
2021/10/06 09:16:41;;;;;;;3.23;0.50;;;;;;;12.50;79.31;95892.97;5013684;28;20243;-65
2021/10/06 09:19:10;;;;;;;1.17;0.40;;;;;;;12.48;79.58;95900.28;5009278;28;20241;-67
2021/10/06 09:21:57;;;;;;;0.50;0.40;;;;;;;12.28;78.25;95907.22;5009305;28;20639;-66
2021/10/06 09:24:46;;;;;;;0.57;0.33;;;;;;;12.42;79.04;95911.63;5021533;28;20690;-67
2021/10/06 09:27:14;;;;;;;2.03;1.07;;;;;;;12.57;79.26;95914.22;5017029;28;20347;-67
2021/10/06 09:29:47;;;;;;;2.47;0.60;;;;;;;12.59;75.92;95912.19;5017848;28;20252;-66
2021/10/06 09:32:27;;;;;;;2.40;0.50;;;;;;;12.91;78.40;95910.84;5016472;28;20276;-66
2021/10/06 09:35:04;;;;;;;0.90;0.40;;;;;;;13.03;76.91;95917.25;5015445;28;20280;-66
2021/10/06 09:37:35;;;;;;;2.90;0.63;;;;;;;13.00;76.57;95909.69;5012741;28;20242;-67
2021/10/06 09:40:06;;;;;;;4.03;1.23;;;;;;;12.93;76.50;95919.41;5017591;28;20219;-66
2021/10/06 09:42:43;;;;;;;2.00;0.40;;;;;;;12.87;76.74;95925.47;5020514;28;20383;-67
2021/10/06 09:45:20;;;;;;;2.77;1.27;;;;;;;12.76;76.68;95924.97;5011013;28;20299;-67
2021/10/06 09:48:00;;;;;;;1.63;0.53;;;;;;;12.77;77.76;95931.09;5022373;28;20230;-66
2021/10/06 09:50:28;;;;;;;2.33;0.53;;;;;;;12.56;76.82;95918.69;5015422;28;20223;-66
2021/10/06 09:53:06;;;;;;;2.23;0.53;;;;;;;12.20;77.16;95926.69;5015363;28;20222;-66
2021/10/06 09:55:35;;;;;;;1.90;0.30;;;;;;;11.84;75.71;95924.03;5012348;28;20247;-66
2021/10/06 09:58:04;;;;;;;1.53;0.30;;;;;;;11.99;77.36;95926.66;5010003;28;20214;-66
2021/10/06 10:00:33;;;;;;;0.53;0.53;;;;;;;11.96;76.03;95933.09;5004736;28;20232;-67
2021/10/06 10:03:03;;;;;;;0.93;0.30;;;;;;;11.88;77.84;95936.66;5002865;28;20222;-67
2021/10/06 10:05:32;;;;;;;1.07;0.57;;;;;;;11.84;77.42;95940.72;5016663;28;20756;-67
2021/10/06 10:08:03;;;;;;;0.60;0.40;;;;;;;11.62;77.30;95937.16;5021189;28;20252;-66
2021/10/06 10:10:33;;;;;;;1.40;0.40;;;;;;;11.62;77.22;95934.50;5015338;28;20306;-67
2021/10/06 10:13:03;;;;;;;0.60;0.47;;;;;;;11.92;77.20;95942.44;5010501;28;20255;-67
2021/10/06 10:15:31;;;;;;;4.37;0.70;;;;;;;11.73;77.84;95932.41;5019748;28;20225;-66
2021/10/06 10:18:02;;;;;;;2.10;0.20;;;;;;;11.92;77.14;95934.50;5005652;28;20225;-67
2021/10/06 10:20:34;;;;;;;0.93;0.57;;;;;;;11.99;77.08;95932.75;5001428;28;20230;-67
2021/10/06 10:23:06;;;;;;;0.57;0.57;;;;;;;11.86;75.23;95930.75;5012263;28;20282;-66
2021/10/06 10:25:41;;;;;;;2.23;0.13;;;;;;;11.86;74.31;95928.13;5008757;28;20333;-66
2021/10/06 10:28:12;;;;;;;1.30;0.37;;;;;;;12.03;74.90;95934.00;5015997;28;20283;-66
2021/10/06 10:30:57;;;;;;;1.63;0.50;;;;;;;12.32;75.42;95929.63;5017883;28;20521;-67
2021/10/06 10:33:37;;;;;;;2.57;0.40;;;;;;;12.10;75.46;95929.63;5020817;28;20288;-67
2021/10/06 10:36:26;;;;;;;1.80;0.50;;;;;;;12.40;75.71;95929.53;4992196;28;20309;-67
2021/10/06 10:38:55;;;;;;;0.63;0.43;;;;;;;12.17;75.59;95925.22;5020423;28;20224;-67
2021/10/06 10:41:41;;;;;;;6.73;0.60;;;;;;;12.37;76.18;95925.44;5014959;28;20252;-67
2021/10/06 10:44:10;;;;;;;0.77;0.23;;;;;;;12.38;74.82;95931.53;5012756;28;20690;-66
2021/10/06 10:46:55;;;;;;;4.97;0.40;;;;;;;12.60;74.29;95924.41;5015879;28;20217;-65
2021/10/06 10:49:24;;;;;;;0.40;0.20;;;;;;;12.42;73.78;95924.84;5012259;28;20222;-65
2021/10/06 10:51:56;;;;;;;0.43;0.43;;;;;;;12.45;73.93;95927.16;5019520;28;20222;-67
2021/10/06 10:54:33;;;;;;;0.70;0.43;;;;;;;12.72;75.20;95918.44;5012339;28;20317;-67
2021/10/06 10:57:07;;;;;;;0.47;0.40;;;;;;;12.78;74.32;95922.94;5019451;28;20261;-67
2021/10/06 10:59:43;;;;;;;3.07;0.40;;;;;;;12.90;75.79;95925.91;5019152;28;20727;-67
2021/10/06 11:02:17;;;;;;;0.40;0.20;;;;;;;12.79;72.83;95926.41;5016167;28;20217;-67
2021/10/06 11:04:47;;;;;;;1.13;0.60;;;;;;;13.12;73.16;95924.03;5014327;28;20297;-66
2021/10/06 11:07:18;;;;;;;1.23;0.47;;;;;;;13.20;74.26;95929.22;5021145;28;20250;-67
2021/10/06 11:09:50;;;;;;;2.23;0.30;;;;;;;13.08;71.65;95923.63;5023957;28;20542;-66
2021/10/06 11:12:32;;;;;;;1.17;0.30;;;;;;;13.78;72.38;95924.44;5019527;28;20745;-67
2021/10/06 11:15:21;;;;;;;5.50;0.50;;;;;;;13.81;70.89;95918.78;5018487;28;20307;-67
2021/10/06 11:18:19;;;;;;;2.33;0.40;;;;;;;14.24;71.51;95918.50;5019573;28;20224;-66
2021/10/06 11:20:50;;;;;;;0.60;0.20;;;;;;;13.64;71.16;95907.69;5015108;28;20298;-67
2021/10/06 11:23:57;;;;;;;1.93;0.50;;;;;;;13.19;70.75;95914.34;5025027;28;20296;-65
2021/10/06 11:26:33;;;;;;;1.30;0.50;;;;;;;12.98;71.99;95917.81;4998380;28;20323;-66
2021/10/06 11:29:04;;;;;;;1.17;0.53;;;;;;;12.78;71.52;95922.13;5017586;28;25127;-67
2021/10/06 11:31:34;;;;;;;0.30;0.20;;;;;;;13.04;73.12;95913.59;5016682;28;20222;-66
2021/10/06 11:34:07;;;;;;;3.30;1.70;;;;;;;13.46;71.12;95910.03;5021794;28;20229;-67
2021/10/06 11:36:36;;;;;;;2.13;0.60;;;;;;;13.35;71.76;95906.09;5020707;28;20839;-67
2021/10/06 11:39:08;;;;;;;1.13;0.53;;;;;;;13.49;71.53;95909.63;5024293;28;20794;-66
2021/10/06 11:41:44;;;;;;;1.63;1.40;;;;;;;13.06;70.10;95904.41;5002939;28;20424;-67
2021/10/06 11:44:16;;;;;;;2.03;0.33;;;;;;;13.22;70.89;95913.13;5014575;28;20222;-66
2021/10/06 11:46:45;;;;;;;1.50;0.20;;;;;;;13.38;70.78;95913.66;5002107;28;20640;-65
2021/10/06 11:49:14;;;;;;;0.60;0.40;;;;;;;13.42;69.25;95910.59;5014752;28;20344;-66